پایگاه خبری-تحلیلی ایرلاین پرس | فرود اضطراری هواپیما در اوکراین ۵ کشته برجای گذاشت

تاریخ خبر: // کد خبر: 230607 // // //


فرود اضطراری هواپیما در اوکراین ۵ کشته برجای گذاشت

وزیر زیرساخت‌های اوکراین اعلام کرد در سانحه فرود اضطراری یک فروند هواپیمای آنتونف – ۱۲ در این کشور پنج نفر جان باختند.


فرود اضطراری هواپیما در اوکراین ۵ کشته برجای گذاشت

4 اکتبر، یک فروند هواپیمای آنتونف An-12BK باری متعلق به شرکت هواپیمایی UAA Ukraine Air Alliance با رجیستر UR-CAH و شماره پرواز UKL-4050 با 7 سرنشین و 1 مسافر (مسوول بار هواپیما) از مبدا فرودگاه Vigo در اسپانیا به مقصد Lviv در اوکراین، هنگام اپروچ به باند 31 مقصد و در فاصله 7.4 ناتیکال مایلی از فرودگاه، از صفحه رادار محو شد.

خدمات اضطراری اوکراین (SES) در بیانیه‌ای با ذکر این خبر افزود این هواپیمای چهارموتوره که در زمان شوروی سابق طراحی شده، در ساعت ۷:۱۰ دقیقه صبح به وقت محلی در فاصله ۱۳/۷ کیلومتری از این فرودگاه از صفحه رادار ناپدید شد.

بنابر گزارشات این هواپیما در ۱/۵ کیلومتری فرودگاه لویو (Lviv) فرود اضطراری انجام داده است.

برپایه گزارش ها، سوخت هواپیما پیش از فرود به اتمام رسیده و خلبان تلاش کرده تا هواپیما را پیش از باند فرود آورد که در نهایت منجر به کشته شدن 5 سرنشین و زخمی شدن 3 نفر دیگر شده است.

در ساعت ۷:۲۹ دقیقه یکی از خدمه در تماس تلفنی با خدمات اضطراری، فرود اضطراری هواپیما را گزارش داد. این هواپیما در ۱/۵ کیلومتری فرودگاه به زمین نشست.

خدمات اضطراری اوکراین اعلام کرد: “آتش سوزی در هواپیما مشاهده نشده و خدمه از هواپیما خارج شدند.”

هواپیمای سانحه دیده 51 سال سن دارد.

وضعیت جوی در زمان سانحه، دید افقی کم(300-800 متر) و دید عمودی 200 پا را بدلیل وجود مه نشان می دهد.
UKLL 040430Z 28001MPS 0800 0500S R31/0900N FG VV002 04/04 Q1013 R31/CLRD// NOSIG=
UKLL 040400Z 00000MPS 0300 0200NW R31/0650D FG VV002 03/03 Q1013 R31/CLRD// TEMPO 0400 FG VV002=

****

****

فرود اضطراری هواپیما در اوکراین ۵ کشته برجای گذاشت

 

 

 

 

 

 

با اندکی تلخیص و اضافات برگرفته از: باشگاه خبرنگاران // خبرگزاری مهر //کانال تلگرامی مرج هوانوردی پارسی


دیدگاه خود را بنویسید




برچسب های خبر: ,,,,,,,,,,,,,,,,,,,,,,,,,,

آخرین اخبار

پربازدید


آتا


آسمان


اترک


ايرتور

پويا


تابان


زاگرس


سپهران


ساها


قشم


کاسپين


کيش


ماهان


معراج


نفت


هما

رصد آب و هوا و وضعیت پروازها

رصد اطلاعات پرواز توسط مسافرین

ایران ایر تور

آرشیو

آتا

آرشیو

آسمان

آرشیو

اترک

آرشیو

نفت

آرشیو

تابان

آرشیو

زاگرس

آرشیو

ساها، سپهران

آرشیو

قشم

آرشیو

کاسپین

آرشیو

کیش ایر

آرشیو

ماهان

آرشیو

معراج

آرشیو

هما

آرشیو

سایر ایرلاین ها

آرشیو

ایرلاین های خارجی

آرشیو